หน้าหลัก
METAR-TAF:

METAR-TAF

ท่าอากาศยาน :

Sanikiluaq, นูนาวุต, แคนาดา

ละติจูด: 56-32N, ลองจิจูด: 079-15W, ความสูง: 32 ม.

การสังเกตสภาพอากาศปัจจุบัน

รายงานได้ทำขึ้นเมื่อ 41 นาทีที่แล้ว ณ เวลา 15:00 UTC
ลม 15 นอตจากใต้/ตะวันตกเฉียงใต้
อุณหภูมิ -14°C
ความชื้น 85%
ความกดอากาศ 1004 hPa
ทัศนวิสัย: 11.3 กม.
มีเมฆมาก มืดครึ้มที่ความสูง 3500 ฟุต
หิมะตกเล็กน้อย

METAR: CYSK 021500Z 21015KT 7SM -SN OVC035 M14/M16 A2964 RMK SC8 CALL OUT SLP044

เวลา: 10:41 (15:41 UTC)


TAF: หายไป

สังเกตการณ์สภาพอากาศและพยากรณ์อากาศของสนามบินมากกว่า 4000 แห่ง (รายงาน METAR และ TAF).

สถานีที่ดูได้จะแสดงไว้ด้วยจุดสีเหลืองและสีแดงบนแผนที่.

เลื่อนเมาส์ไปเหนือจุดเพื่อดูชื่อสถานี.

แล้วคลิกเพื่อดูสังเกตการณ์และการพยากรณ์สภาพอากาศ.

ในการเปลี่ยนแผนที่: คลิกที่ปุ่มสีเขียวที่มีกากบาทสีดำเพื่อซูมเข้า; ที่ปุ่มสีเขียวที่มีขีดเพื่อซูมออก; หรือที่ลูกศรสีเขียวเพื่อไปยังแผนที่ที่อยู่ติดกัน.


METAR-TAF: